createdAt,value
2016-07-12T00:00:46.820Z,0
2016-07-12T00:01:47.506Z,0
2016-07-12T00:02:47.489Z,0
2016-07-12T00:03:46.076Z,0
2016-07-12T00:04:46.049Z,0
2016-07-12T00:05:46.047Z,0
2016-07-12T00:06:45.329Z,0
2016-07-12T00:07:46.024Z,0
2016-07-12T00:08:46.730Z,0
2016-07-12T00:09:46.000Z,0
2016-07-12T00:10:45.986Z,0
2016-07-12T00:11:46.711Z,0
2016-07-12T00:12:47.381Z,0
2016-07-12T00:13:45.259Z,0
2016-07-12T00:14:45.256Z,0
2016-07-12T00:15:45.936Z,0
2016-07-12T00:16:46.653Z,0
2016-07-12T00:17:45.214Z,0
2016-07-12T00:18:45.900Z,0
2016-07-12T00:19:45.188Z,0
2016-07-12T00:20:45.883Z,0
2016-07-12T00:21:44.468Z,0
2016-07-12T00:22:45.154Z,0
2016-07-12T00:23:45.848Z,0
2016-07-12T00:24:45.336Z,0
2016-07-12T00:25:46.541Z,0
2016-07-12T00:26:45.161Z,0
2016-07-12T00:27:45.098Z,0
2016-07-12T00:28:44.376Z,0
2016-07-12T00:29:45.072Z,0
2016-07-12T00:30:45.075Z,0
2016-07-12T00:31:45.760Z,0
2016-07-12T00:32:45.053Z,0
2016-07-12T00:33:45.045Z,0
2016-07-12T00:34:45.017Z,0
2016-07-12T00:35:45.017Z,0
2016-07-12T00:36:47.134Z,0
2016-07-12T00:37:44.982Z,0
2016-07-12T00:38:44.982Z,0
2016-07-12T00:39:44.979Z,0
2016-07-12T00:40:44.952Z,0
2016-07-12T00:41:44.241Z,0
2016-07-12T00:42:44.234Z,0
2016-07-12T00:43:44.213Z,0
2016-07-12T00:44:44.209Z,0
2016-07-12T00:45:44.902Z,0
2016-07-12T00:46:46.303Z,0
2016-07-12T00:47:44.877Z,0
2016-07-12T00:48:45.582Z,0
2016-07-12T00:49:44.864Z,0
2016-07-12T00:50:44.134Z,0
2016-07-12T00:51:44.130Z,0
2016-07-12T00:52:46.245Z,0
2016-07-12T00:53:45.516Z,0
2016-07-12T00:54:44.802Z,0
2016-07-12T00:55:46.214Z,0
2016-07-12T00:56:44.783Z,0
2016-07-12T00:57:46.186Z,0
2016-07-12T00:58:46.175Z,0
2016-07-12T00:59:45.460Z,0
2016-07-12T01:00:45.438Z,0
2016-07-12T01:01:44.727Z,0
2016-07-12T01:02:45.421Z,0
2016-07-12T01:03:44.702Z,0
2016-07-12T01:04:44.696Z,0
2016-07-12T01:05:44.678Z,0
2016-07-12T01:06:45.383Z,0
2016-07-12T01:07:46.074Z,0
2016-07-12T01:08:43.943Z,0
2016-07-12T01:09:45.342Z,0
2016-07-12T01:10:45.332Z,0
2016-07-12T01:11:45.320Z,0
2016-07-12T01:12:45.314Z,0
2016-07-12T01:13:44.586Z,0
2016-07-12T01:14:44.585Z,0
2016-07-12T01:15:45.280Z,0
2016-07-12T01:16:43.865Z,0
2016-07-12T01:17:44.562Z,0
2016-07-12T01:18:44.542Z,0
2016-07-12T01:19:44.523Z,0
2016-07-12T01:20:45.930Z,0
2016-07-12T01:21:45.926Z,0
2016-07-12T01:22:43.780Z,0
2016-07-12T01:23:45.892Z,0
2016-07-12T01:24:43.764Z,0
2016-07-12T01:25:44.457Z,0
2016-07-12T01:26:45.158Z,0
2016-07-12T01:27:46.565Z,0
2016-07-12T01:28:44.431Z,0
2016-07-12T01:29:44.410Z,0
2016-07-12T01:30:44.410Z,0
2016-07-12T01:31:43.690Z,0
2016-07-12T01:32:44.382Z,0
2016-07-12T01:33:45.791Z,0
2016-07-12T01:34:44.369Z,0
2016-07-12T01:35:44.350Z,0
2016-07-12T01:36:45.058Z,0
2016-07-12T01:37:45.750Z,0
2016-07-12T01:38:44.316Z,0
2016-07-12T01:39:45.019Z,0
2016-07-12T01:40:43.592Z,0
2016-07-12T01:41:44.990Z,0
2016-07-12T01:42:44.285Z,0
2016-07-12T01:43:43.560Z,0
2016-07-12T01:44:44.958Z,0
2016-07-12T01:45:44.944Z,0
2016-07-12T01:46:44.938Z,0
2016-07-12T01:47:44.925Z,0
2016-07-12T01:48:45.619Z,0
2016-07-12T01:49:44.904Z,0
2016-07-12T01:50:43.472Z,0
2016-07-12T01:51:44.883Z,0
2016-07-12T01:52:44.870Z,0
2016-07-12T01:53:44.853Z,0
2016-07-12T01:54:44.864Z,0
2016-07-12T01:55:44.843Z,0
2016-07-12T01:56:44.113Z,0
2016-07-12T01:57:44.812Z,0
2016-07-12T01:58:44.096Z,0
2016-07-12T01:59:44.788Z,0
2016-07-12T02:00:43.362Z,0
2016-07-12T02:01:44.072Z,0
2016-07-12T02:02:44.076Z,0
2016-07-12T02:03:46.172Z,0
2016-07-12T02:04:45.441Z,0
2016-07-12T02:05:44.016Z,0
2016-07-12T02:06:44.709Z,0
2016-07-12T02:07:43.286Z,0
2016-07-12T02:08:44.690Z,0
2016-07-12T02:09:44.672Z,0
2016-07-12T02:10:44.674Z,0
2016-07-12T02:11:44.658Z,0
2016-07-12T02:12:44.644Z,0
2016-07-12T02:13:45.339Z,0
2016-07-12T02:14:44.622Z,0
2016-07-12T02:15:45.314Z,0
2016-07-12T02:16:44.594Z,0
2016-07-12T02:17:43.173Z,0
2016-07-12T02:18:44.582Z,0
2016-07-12T02:19:43.867Z,0
2016-07-12T02:20:45.970Z,0
2016-07-12T02:21:43.825Z,0
2016-07-12T02:22:45.238Z,0
2016-07-12T02:23:43.810Z,0
2016-07-12T02:24:44.047Z,0
2016-07-12T02:25:43.789Z,0
2016-07-12T02:26:44.486Z,0
2016-07-12T02:27:43.055Z,0
2016-07-12T02:28:43.758Z,0
2016-07-12T02:29:43.741Z,0
2016-07-12T02:30:43.035Z,0
2016-07-12T02:31:43.715Z,0
2016-07-12T02:32:43.709Z,0
2016-07-12T02:33:44.402Z,0
2016-07-12T02:34:45.111Z,0
2016-07-12T02:35:44.380Z,0
2016-07-12T02:36:44.375Z,0
2016-07-12T02:37:44.370Z,0
2016-07-12T02:38:45.048Z,0
2016-07-12T02:39:43.626Z,0
2016-07-12T02:40:43.621Z,0
2016-07-12T02:41:42.923Z,0
2016-07-12T02:42:45.005Z,0
2016-07-12T02:43:45.042Z,0
2016-07-12T02:44:42.867Z,0
2016-07-12T02:45:44.274Z,0
2016-07-12T02:46:43.550Z,0
2016-07-12T02:47:43.540Z,0
2016-07-12T02:48:43.525Z,0
2016-07-12T02:49:44.936Z,0
2016-07-12T02:50:43.502Z,0
2016-07-12T02:51:44.200Z,0
2016-07-12T02:52:42.769Z,0
2016-07-12T02:53:43.462Z,0
2016-07-12T02:54:42.758Z,0
2016-07-12T02:55:45.570Z,0
2016-07-12T02:56:42.728Z,0
2016-07-12T02:57:44.840Z,0
2016-07-12T02:58:43.431Z,0
2016-07-12T02:59:44.111Z,0
2016-07-12T03:00:44.802Z,0
2016-07-12T03:01:42.671Z,0
2016-07-12T03:02:44.067Z,0
2016-07-12T03:03:43.346Z,0
2016-07-12T03:04:42.632Z,0
2016-07-12T03:05:44.769Z,0
2016-07-12T03:06:44.039Z,0
2016-07-12T03:07:42.631Z,0
2016-07-12T03:08:44.037Z,0
2016-07-12T03:09:43.289Z,0
2016-07-12T03:10:44.005Z,0
2016-07-12T03:11:43.260Z,0
2016-07-12T03:12:42.539Z,0
2016-07-12T03:13:43.238Z,0
2016-07-12T03:14:43.931Z,0
2016-07-12T03:15:43.212Z,0
2016-07-12T03:16:43.909Z,0
2016-07-12T03:17:43.210Z,0
2016-07-12T03:18:43.889Z,0
2016-07-12T03:19:43.164Z,0
2016-07-12T03:20:43.859Z,0
2016-07-12T03:21:43.844Z,0
2016-07-12T03:22:43.834Z,0
2016-07-12T03:23:42.426Z,0
2016-07-12T03:24:42.401Z,0
2016-07-12T03:25:43.801Z,0
2016-07-12T03:26:43.084Z,0
2016-07-12T03:27:43.072Z,0
2016-07-12T03:28:43.055Z,0
2016-07-12T03:29:43.058Z,0
2016-07-12T03:30:42.334Z,0
2016-07-12T03:31:43.734Z,5
2016-07-12T03:32:43.015Z,5
2016-07-12T03:33:43.000Z,5
2016-07-12T03:34:45.110Z,5
2016-07-12T03:35:44.396Z,5
2016-07-12T03:36:44.377Z,5
2016-07-12T03:37:43.656Z,5
2016-07-12T03:38:43.656Z,5
2016-07-12T03:39:43.641Z,5
2016-07-12T03:40:42.207Z,5
2016-07-12T03:41:42.210Z,5
2016-07-12T03:42:42.895Z,5
2016-07-12T03:43:43.590Z,5
2016-07-12T03:44:42.880Z,10
2016-07-12T03:45:42.154Z,10
2016-07-12T03:46:42.133Z,10
2016-07-12T03:47:42.853Z,10
2016-07-12T03:48:42.830Z,10
2016-07-12T03:49:44.232Z,10
2016-07-12T03:50:43.510Z,10
2016-07-12T03:51:42.801Z,15
2016-07-12T03:52:42.083Z,15
2016-07-12T03:53:43.468Z,15
2016-07-12T03:54:44.166Z,15
2016-07-12T03:55:42.061Z,15
2016-07-12T03:56:43.438Z,15
2016-07-12T03:57:42.716Z,15
2016-07-12T03:58:44.133Z,15
2016-07-12T03:59:42.709Z,20
2016-07-12T04:00:44.170Z,20
2016-07-12T04:01:43.386Z,20
2016-07-12T04:02:44.073Z,20
2016-07-12T04:03:42.645Z,20
2016-07-12T04:04:42.638Z,25
2016-07-12T04:05:44.044Z,25
2016-07-12T04:06:44.026Z,25
2016-07-12T04:07:42.615Z,30
2016-07-12T04:08:43.314Z,30
2016-07-12T04:09:43.282Z,30
2016-07-12T04:10:43.270Z,30
2016-07-12T04:11:43.269Z,35
2016-07-12T04:12:43.256Z,35
2016-07-12T04:13:43.239Z,35
2016-07-12T04:14:43.944Z,35
2016-07-12T04:15:43.215Z,35
2016-07-12T04:16:43.205Z,35
2016-07-12T04:17:41.778Z,35
2016-07-12T04:18:43.901Z,35
2016-07-12T04:19:43.171Z,35
2016-07-12T04:20:41.743Z,40
2016-07-12T04:21:43.138Z,40
2016-07-12T04:22:42.427Z,40
2016-07-12T04:23:43.122Z,40
2016-07-12T04:24:43.509Z,40
2016-07-12T04:25:42.392Z,40
2016-07-12T04:26:43.099Z,40
2016-07-12T04:27:43.071Z,40
2016-07-12T04:28:43.065Z,40
2016-07-12T04:29:43.061Z,40
2016-07-12T04:30:42.328Z,40
2016-07-12T04:31:43.029Z,40
2016-07-12T04:32:42.310Z,40
2016-07-12T04:33:41.587Z,40
2016-07-12T04:34:42.998Z,40
2016-07-12T04:35:42.990Z,40
2016-07-12T04:36:42.259Z,40
2016-07-12T04:37:42.264Z,40
2016-07-12T04:38:42.951Z,35
2016-07-12T04:39:42.944Z,35
2016-07-12T04:40:42.957Z,40
2016-07-12T04:41:42.921Z,40
2016-07-12T04:42:41.496Z,40
2016-07-12T04:43:42.189Z,40
2016-07-12T04:44:42.182Z,45
2016-07-12T04:45:42.160Z,45
2016-07-12T04:46:42.153Z,50
2016-07-12T04:47:42.145Z,50
2016-07-12T04:48:43.539Z,55
2016-07-12T04:49:41.411Z,55
2016-07-12T04:50:42.822Z,55
2016-07-12T04:51:42.093Z,55
2016-07-12T04:52:42.083Z,55
2016-07-12T04:53:41.374Z,55
2016-07-12T04:54:41.355Z,55
2016-07-12T04:55:42.765Z,50
2016-07-12T04:56:41.341Z,50
2016-07-12T04:57:42.021Z,50
2016-07-12T04:58:41.308Z,50
2016-07-12T04:59:43.431Z,50
2016-07-12T05:00:41.285Z,45
2016-07-12T05:01:42.694Z,45
2016-07-12T05:02:42.683Z,45
2016-07-12T05:03:41.955Z,45
2016-07-12T05:04:41.243Z,45
2016-07-12T05:05:41.227Z,45
2016-07-12T05:06:42.629Z,45
2016-07-12T05:07:41.908Z,45
2016-07-12T05:08:41.900Z,45
2016-07-12T05:09:41.887Z,45
2016-07-12T05:10:41.885Z,45
2016-07-12T05:11:41.867Z,45
2016-07-12T05:12:41.852Z,45
2016-07-12T05:13:43.269Z,45
2016-07-12T05:14:41.835Z,45
2016-07-12T05:15:41.118Z,45
2016-07-12T05:16:41.819Z,45
2016-07-12T05:17:41.099Z,45
2016-07-12T05:18:42.500Z,45
2016-07-12T05:19:41.781Z,45
2016-07-12T05:20:42.475Z,50
2016-07-12T05:21:42.459Z,55
2016-07-12T05:22:43.158Z,60
2016-07-12T05:23:43.150Z,60
2016-07-12T05:24:43.128Z,60
2016-07-12T05:25:42.414Z,55
2016-07-12T05:26:40.991Z,60
2016-07-12T05:27:43.096Z,60
2016-07-12T05:28:40.967Z,60
2016-07-12T05:29:43.080Z,60
2016-07-12T05:30:41.656Z,60
2016-07-12T05:31:42.346Z,60
2016-07-12T05:32:43.760Z,60
2016-07-12T05:33:43.034Z,60
2016-07-12T05:34:43.015Z,60
2016-07-12T05:35:42.319Z,60
2016-07-12T05:36:41.587Z,60
2016-07-12T05:37:40.860Z,60
2016-07-12T05:38:41.564Z,60
2016-07-12T05:39:40.858Z,60
2016-07-12T05:40:42.961Z,60
2016-07-12T05:41:42.234Z,60
2016-07-12T05:42:42.233Z,60
2016-07-12T05:43:43.628Z,60
2016-07-12T05:44:42.207Z,60
2016-07-12T05:45:40.782Z,65
2016-07-12T05:46:40.766Z,65
2016-07-12T05:47:42.876Z,65
2016-07-12T05:48:41.450Z,65
2016-07-12T05:49:40.730Z,65
2016-07-12T05:50:41.438Z,65
2016-07-12T05:51:40.707Z,65
2016-07-12T05:52:42.109Z,65
2016-07-12T05:53:42.102Z,65
2016-07-12T05:54:41.390Z,65
2016-07-12T05:55:41.366Z,65
2016-07-12T05:56:42.070Z,65
2016-07-12T05:57:42.082Z,65
2016-07-12T05:58:40.626Z,65
2016-07-12T05:59:41.328Z,65
2016-07-12T06:00:42.738Z,65
2016-07-12T06:01:41.302Z,65
2016-07-12T06:02:43.415Z,65
2016-07-12T06:03:41.987Z,65
2016-07-12T06:04:42.688Z,65
2016-07-12T06:05:41.983Z,65
2016-07-12T06:06:41.959Z,65
2016-07-12T06:07:41.941Z,70
2016-07-12T06:08:42.645Z,70
2016-07-12T06:09:42.639Z,70
2016-07-12T06:10:41.202Z,75
2016-07-12T06:11:40.489Z,75
2016-07-12T06:12:41.889Z,75
2016-07-12T06:13:41.890Z,85
2016-07-12T06:14:42.585Z,105
2016-07-12T06:15:41.149Z,300
2016-07-12T06:16:40.427Z,375
2016-07-12T06:17:41.847Z,660
2016-07-12T06:18:40.420Z,465
2016-07-12T06:19:40.415Z,150
2016-07-12T06:20:41.111Z,85
2016-07-12T06:21:41.799Z,85
2016-07-12T06:22:41.781Z,85
2016-07-12T06:23:41.126Z,75
2016-07-12T06:24:41.059Z,75
2016-07-12T06:25:40.339Z,75
2016-07-12T06:26:41.742Z,75
2016-07-12T06:27:41.077Z,75
2016-07-12T06:28:41.014Z,80
2016-07-12T06:29:41.008Z,80
2016-07-12T06:30:42.416Z,80
2016-07-12T06:31:41.690Z,75
2016-07-12T06:32:40.977Z,75
2016-07-12T06:33:41.017Z,75
2016-07-12T06:34:42.364Z,75
2016-07-12T06:35:42.363Z,75
2016-07-12T06:36:40.938Z,80
2016-07-12T06:37:41.634Z,100
2016-07-12T06:38:41.620Z,105
2016-07-12T06:39:40.897Z,95
2016-07-12T06:40:40.886Z,95
2016-07-12T06:41:42.308Z,95
2016-07-12T06:42:40.866Z,95
2016-07-12T06:43:42.274Z,90
2016-07-12T06:44:40.860Z,100
2016-07-12T06:45:41.552Z,100
2016-07-12T06:46:41.541Z,105
2016-07-12T06:47:40.812Z,115
2016-07-12T06:48:41.512Z,115
2016-07-12T06:49:42.225Z,95
2016-07-12T06:50:41.494Z,95
2016-07-12T06:51:41.494Z,90
2016-07-12T06:52:40.771Z,85
2016-07-12T06:53:42.164Z,85
2016-07-12T06:54:41.455Z,100
2016-07-12T06:55:41.442Z,155
2016-07-12T06:56:40.025Z,280
2016-07-12T06:57:42.127Z,130
2016-07-12T06:58:40.706Z,215
2016-07-12T06:59:41.401Z,185
2016-07-12T07:00:41.394Z,240
2016-07-12T07:01:39.970Z,135
2016-07-12T07:02:41.373Z,115
2016-07-12T07:03:39.949Z,125
2016-07-12T07:04:41.344Z,125
2016-07-12T07:05:40.633Z,130
2016-07-12T07:06:40.632Z,125
2016-07-12T07:07:40.621Z,110
2016-07-12T07:08:39.909Z,105
2016-07-12T07:09:42.715Z,100
2016-07-12T07:10:41.285Z,95
2016-07-12T07:11:40.578Z,110
2016-07-12T07:12:40.564Z,120
2016-07-12T07:13:41.262Z,140
2016-07-12T07:14:40.543Z,145
2016-07-12T07:15:41.266Z,110
2016-07-12T07:16:41.230Z,105
2016-07-12T07:17:41.213Z,110
2016-07-12T07:18:41.216Z,120
2016-07-12T07:19:41.910Z,130
2016-07-12T07:20:41.183Z,105
2016-07-12T07:21:41.182Z,105
2016-07-12T07:22:40.468Z,105
2016-07-12T07:23:40.463Z,105
2016-07-12T07:24:41.860Z,115
2016-07-12T07:25:40.433Z,120
2016-07-12T07:26:39.718Z,120
2016-07-12T07:27:39.710Z,125
2016-07-12T07:28:42.536Z,120
2016-07-12T07:29:40.407Z,140
2016-07-12T07:30:40.385Z,140
2016-07-12T07:31:41.790Z,135
2016-07-12T07:32:40.372Z,135
2016-07-12T07:33:41.069Z,370
2016-07-12T07:34:41.058Z,1105
2016-07-12T07:35:39.644Z,1365
2016-07-12T07:36:40.345Z,770
2016-07-12T07:38:41.733Z,1210
2016-07-12T07:39:40.360Z,1475
2016-07-12T07:40:40.294Z,1470
2016-07-12T07:41:41.000Z,1460
2016-07-12T07:42:40.288Z,1410
2016-07-12T07:43:40.987Z,1510
2016-07-12T07:44:41.692Z,1460
2016-07-12T07:45:40.260Z,145
2016-07-12T07:46:40.253Z,315
2016-07-12T07:47:40.247Z,1355
2016-07-12T07:48:40.242Z,1220
2016-07-12T07:49:40.934Z,220
2016-07-12T07:50:40.933Z,215
2016-07-12T07:51:40.221Z,1285
2016-07-12T07:52:39.517Z,780
2016-07-12T07:53:39.496Z,765
2016-07-12T07:54:40.203Z,830
2016-07-12T07:55:41.619Z,270
2016-07-12T07:56:40.189Z,1215
2016-07-12T07:57:40.891Z,300
2016-07-12T07:58:40.892Z,260
2016-07-12T07:59:40.874Z,275
2016-07-12T08:00:42.287Z,300
2016-07-12T08:01:40.866Z,1475
2016-07-12T08:02:40.873Z,1650
2016-07-12T08:03:40.139Z,1730
2016-07-12T08:04:41.602Z,245
2016-07-12T08:05:39.434Z,620
2016-07-12T08:06:41.548Z,735
2016-07-12T08:07:40.121Z,220
2016-07-12T08:08:40.821Z,230
2016-07-12T08:09:40.814Z,1395
2016-07-12T08:10:41.514Z,470
2016-07-12T08:11:40.808Z,1800
2016-07-12T08:12:40.802Z,1790
2016-07-12T08:13:40.790Z,400
2016-07-12T08:14:40.784Z,1785
2016-07-12T08:15:40.778Z,270
2016-07-12T08:16:40.069Z,1470
2016-07-12T08:17:41.479Z,1755
2016-07-12T08:18:40.059Z,1545
2016-07-12T08:19:40.054Z,1760
2016-07-12T08:20:40.058Z,1820
2016-07-12T08:21:39.341Z,990
2016-07-12T08:22:40.037Z,1880
2016-07-12T08:23:39.329Z,1865
2016-07-12T08:24:40.029Z,1835
2016-07-12T08:25:40.232Z,215
2016-07-12T08:26:42.150Z,205
2016-07-12T08:27:40.024Z,510
2016-07-12T08:28:39.311Z,1805
2016-07-12T08:29:41.434Z,1760
2016-07-12T08:30:40.713Z,1765
2016-07-12T08:31:40.891Z,1830
2016-07-12T08:32:40.006Z,1885
2016-07-12T08:33:41.420Z,1890
2016-07-12T08:34:40.705Z,1830
2016-07-12T08:35:40.708Z,1840
2016-07-12T08:36:40.697Z,1810
2016-07-12T08:37:40.001Z,1715
2016-07-12T08:38:40.697Z,1835
2016-07-12T08:39:41.393Z,1760
2016-07-12T08:40:39.280Z,1865
2016-07-12T08:41:41.389Z,1850
2016-07-12T08:42:40.697Z,1745
2016-07-12T08:43:39.974Z,1570
2016-07-12T08:44:39.968Z,1375
2016-07-12T08:45:39.268Z,1320
2016-07-12T08:46:39.980Z,1745
2016-07-12T08:47:40.683Z,1820
2016-07-12T08:48:40.674Z,1910
2016-07-12T08:49:40.670Z,1750
2016-07-12T08:50:41.380Z,405
2016-07-12T08:51:39.963Z,605
2016-07-12T08:52:41.372Z,310
2016-07-12T08:53:39.956Z,655
2016-07-12T08:54:40.663Z,555
2016-07-12T08:55:40.661Z,720
2016-07-12T08:56:39.948Z,710
2016-07-12T08:57:41.363Z,555
2016-07-12T08:58:39.236Z,750
2016-07-12T08:59:39.941Z,720
2016-07-12T09:00:40.651Z,310
2016-07-12T09:01:39.932Z,610
2016-07-12T09:02:39.226Z,450
2016-07-12T09:03:40.645Z,1405
2016-07-12T09:04:40.625Z,770
2016-07-12T09:05:39.924Z,890
2016-07-12T09:06:39.212Z,645
2016-07-12T09:07:42.027Z,645
2016-07-12T09:08:39.198Z,360
2016-07-12T09:09:39.896Z,1170
2016-07-12T09:10:39.187Z,1020
2016-07-12T09:11:40.600Z,1085
2016-07-12T09:12:40.592Z,1085
2016-07-12T09:13:39.877Z,200
2016-07-12T09:14:40.587Z,1760
2016-07-12T09:15:39.876Z,1950
2016-07-12T09:16:41.286Z,1510
2016-07-12T09:17:39.863Z,1345
2016-07-12T09:18:39.865Z,770
2016-07-12T09:19:39.862Z,1870
2016-07-12T09:20:41.261Z,1990
2016-07-12T09:21:40.564Z,405
2016-07-12T09:22:41.268Z,2040
2016-07-12T09:23:41.306Z,2045
2016-07-12T09:24:41.281Z,2085
2016-07-12T09:25:41.269Z,2100
2016-07-12T09:26:39.831Z,1785
2016-07-12T09:27:40.542Z,2085
2016-07-12T09:28:39.833Z,1600
2016-07-12T09:29:39.830Z,2085
2016-07-12T09:30:39.850Z,2130
2016-07-12T09:31:39.825Z,1465
2016-07-12T09:32:39.119Z,2080
2016-07-12T09:33:39.823Z,2065
2016-07-12T09:34:41.232Z,1945
2016-07-12T09:35:40.530Z,1155
2016-07-12T09:36:39.129Z,1680
2016-07-12T09:37:41.237Z,280
2016-07-12T09:38:40.534Z,1550
2016-07-12T09:39:41.226Z,1805
2016-07-12T09:40:41.233Z,740
2016-07-12T09:41:40.537Z,325
2016-07-12T09:42:40.532Z,680
2016-07-12T09:43:41.239Z,775
2016-07-12T09:44:39.800Z,1835
2016-07-12T09:45:40.508Z,2090
2016-07-12T09:46:39.807Z,2300
2016-07-12T09:47:40.505Z,1390
2016-07-12T09:48:40.510Z,320
2016-07-12T09:49:39.794Z,405
2016-07-12T09:50:39.797Z,280
2016-07-12T09:51:41.203Z,590
2016-07-12T09:52:41.905Z,310
2016-07-12T09:53:40.495Z,325
2016-07-12T09:54:39.776Z,735
2016-07-12T09:55:39.777Z,405
2016-07-12T09:56:41.193Z,495
2016-07-12T09:57:39.774Z,390
2016-07-12T09:58:39.767Z,345
2016-07-12T09:59:40.472Z,255
2016-07-12T10:00:41.882Z,580
2016-07-12T10:01:39.761Z,715
2016-07-12T10:02:39.746Z,340
2016-07-12T10:03:40.453Z,425
2016-07-12T10:04:39.045Z,265
2016-07-12T10:05:39.040Z,215
2016-07-12T10:06:39.042Z,440
2016-07-12T10:07:40.436Z,260
2016-07-12T10:08:39.724Z,255
2016-07-12T10:09:39.714Z,1585
2016-07-12T10:10:39.715Z,2185
2016-07-12T10:11:41.130Z,2110
2016-07-12T10:12:40.416Z,2085
2016-07-12T10:13:40.463Z,2085
2016-07-12T10:14:40.407Z,2110
2016-07-12T10:15:39.699Z,2115
2016-07-12T10:16:40.408Z,2105
2016-07-12T10:17:39.680Z,2170
2016-07-12T10:18:40.394Z,2135
2016-07-12T10:19:41.089Z,2185
2016-07-12T10:20:39.680Z,2250
2016-07-12T10:21:40.386Z,1960
2016-07-12T10:22:40.393Z,2205
2016-07-12T10:23:39.675Z,2260
2016-07-12T10:24:39.671Z,2295
2016-07-12T10:25:41.297Z,2305
2016-07-12T10:26:41.086Z,2295
2016-07-12T10:27:38.959Z,2245
2016-07-12T10:28:39.673Z,2385
2016-07-12T10:29:41.086Z,2270
2016-07-12T10:31:40.386Z,2300
2016-07-12T10:32:39.676Z,2320
2016-07-12T10:33:40.380Z,2185
2016-07-12T10:35:13.322Z,2175
2016-07-12T10:35:40.387Z,2265
2016-07-12T10:36:39.682Z,2005
2016-07-12T10:37:40.380Z,2295
2016-07-12T10:38:40.388Z,2270
2016-07-12T10:39:40.385Z,2210
2016-07-12T10:40:41.088Z,2295
2016-07-12T10:41:40.393Z,380
2016-07-12T10:42:40.386Z,1895
2016-07-12T10:43:40.421Z,2345
2016-07-12T10:44:41.115Z,745
2016-07-12T10:45:38.979Z,2365
2016-07-12T10:46:39.687Z,560
2016-07-12T10:47:41.815Z,315
2016-07-12T10:48:39.691Z,2395
2016-07-12T10:49:38.983Z,2205
2016-07-12T10:50:41.156Z,2315
2016-07-12T10:51:40.405Z,555
2016-07-12T10:52:39.708Z,2540
2016-07-12T10:53:39.699Z,1010
2016-07-12T10:54:41.114Z,365
2016-07-12T10:55:40.420Z,430
2016-07-12T10:56:41.119Z,2220
2016-07-12T10:57:41.122Z,2260
2016-07-12T10:58:39.704Z,2290
2016-07-12T10:59:39.001Z,2280
2016-07-12T11:00:41.179Z,755
2016-07-12T11:01:40.428Z,340
2016-07-12T11:02:39.003Z,350
2016-07-12T11:03:41.833Z,635
2016-07-12T11:04:39.761Z,2225
2016-07-12T11:05:41.155Z,2230
2016-07-12T11:06:39.718Z,2190
2016-07-12T11:07:41.889Z,2295
2016-07-12T11:08:41.138Z,2325
2016-07-12T11:09:41.125Z,2325
2016-07-12T11:10:39.719Z,2300
2016-07-12T11:11:41.133Z,2200
2016-07-12T11:12:39.019Z,2065
2016-07-12T11:13:40.436Z,1900
2016-07-12T11:14:41.845Z,1715
2016-07-12T11:15:41.148Z,1575
2016-07-12T11:16:41.129Z,1560
2016-07-12T11:17:39.727Z,1680
2016-07-12T11:18:41.164Z,665
2016-07-12T11:19:39.024Z,650
2016-07-12T11:20:40.448Z,585
2016-07-12T11:21:40.489Z,265
2016-07-12T11:22:40.447Z,325
2016-07-12T11:23:39.028Z,2335
2016-07-12T11:24:41.170Z,2340
2016-07-12T11:25:39.788Z,1605
2016-07-12T11:26:39.757Z,2160
2016-07-12T11:27:40.459Z,2005
2016-07-12T11:28:41.156Z,2075
2016-07-12T11:29:39.042Z,2135
2016-07-12T11:30:40.469Z,2305
2016-07-12T11:31:40.477Z,2420
2016-07-12T11:32:39.757Z,2435
2016-07-12T11:33:39.751Z,2385
2016-07-12T11:34:41.183Z,2330
2016-07-12T11:35:40.495Z,2200
2016-07-12T11:36:41.205Z,2270
2016-07-12T11:37:40.490Z,2230
2016-07-12T11:38:39.771Z,1570
2016-07-12T11:39:41.185Z,2250
2016-07-12T11:40:41.219Z,2200
2016-07-12T11:41:40.480Z,2200
2016-07-12T11:42:39.817Z,2190
2016-07-12T11:43:39.074Z,2195
2016-07-12T11:44:41.197Z,2240
2016-07-12T11:45:39.773Z,770
2016-07-12T11:46:39.071Z,825
2016-07-12T11:47:41.224Z,465
2016-07-12T11:48:39.807Z,455
2016-07-12T11:49:39.806Z,1890
2016-07-12T11:50:40.514Z,1985
2016-07-12T11:51:39.821Z,2295
2016-07-12T11:52:41.227Z,1475
2016-07-12T11:53:40.519Z,745
2016-07-12T11:54:40.510Z,630
2016-07-12T11:55:40.518Z,565
2016-07-12T11:56:40.570Z,665
2016-07-12T11:57:39.099Z,1135
2016-07-12T11:58:39.803Z,1100
2016-07-12T11:59:39.126Z,1160
2016-07-12T12:00:41.220Z,2060
2016-07-12T12:01:39.804Z,2135
2016-07-12T12:02:40.526Z,2145
2016-07-12T12:03:39.808Z,1425
2016-07-12T12:04:40.509Z,1855
2016-07-12T12:05:39.807Z,715
2016-07-12T12:06:41.231Z,2165
2016-07-12T12:07:39.185Z,2210
2016-07-12T12:08:39.808Z,2050
2016-07-12T12:09:39.813Z,2260
2016-07-12T12:10:40.528Z,2280
2016-07-12T12:11:41.935Z,2355
2016-07-12T12:12:40.522Z,1355
2016-07-12T12:13:39.105Z,855
2016-07-12T12:14:40.559Z,1265
2016-07-12T12:15:41.245Z,1855
2016-07-12T12:16:39.822Z,1510
2016-07-12T12:17:41.231Z,2525
2016-07-12T12:18:40.522Z,2010
2016-07-12T12:19:41.237Z,1620
2016-07-12T12:20:39.123Z,2530
2016-07-12T12:21:39.827Z,1105
2016-07-12T12:22:39.826Z,1005
2016-07-12T12:23:40.560Z,625
2016-07-12T12:24:39.830Z,555
2016-07-12T12:25:40.747Z,520
2016-07-12T12:26:39.128Z,530
2016-07-12T12:27:39.125Z,585
2016-07-12T12:28:40.600Z,745
2016-07-12T12:29:39.829Z,770
2016-07-12T12:30:39.854Z,610
2016-07-12T12:31:39.844Z,580
2016-07-12T12:32:39.124Z,545
2016-07-12T12:33:40.547Z,545
2016-07-12T12:34:41.255Z,750
2016-07-12T12:35:40.554Z,1125
2016-07-12T12:36:39.852Z,715
2016-07-12T12:37:41.242Z,465
2016-07-12T12:38:39.830Z,445
2016-07-12T12:39:40.534Z,475
2016-07-12T12:40:39.824Z,530
2016-07-12T12:41:41.234Z,590
2016-07-12T12:42:40.522Z,585
2016-07-12T12:43:39.108Z,485
2016-07-12T12:44:39.840Z,465
2016-07-12T12:45:40.511Z,445
2016-07-12T12:46:39.096Z,520
2016-07-12T12:47:39.808Z,555
2016-07-12T12:48:41.213Z,610
2016-07-12T12:49:39.797Z,955
2016-07-12T12:50:40.501Z,620
2016-07-12T12:51:39.794Z,1340
2016-07-12T12:52:39.794Z,2235
2016-07-12T12:53:39.087Z,1815
2016-07-12T12:54:39.072Z,2440
2016-07-12T12:55:39.834Z,1180
2016-07-12T12:56:39.771Z,820
2016-07-12T12:57:40.480Z,1650
2016-07-12T12:58:39.769Z,440
2016-07-12T12:59:39.771Z,385
2016-07-12T13:00:39.764Z,365
2016-07-12T13:01:41.181Z,320
2016-07-12T13:02:40.466Z,310
2016-07-12T13:03:39.763Z,330
2016-07-12T13:04:40.480Z,400
2016-07-12T13:05:39.753Z,385
2016-07-12T13:06:40.439Z,410
2016-07-12T13:07:39.742Z,425
2016-07-12T13:08:40.467Z,430
2016-07-12T13:09:39.026Z,460
2016-07-12T13:10:40.443Z,520
2016-07-12T13:11:40.485Z,975
2016-07-12T13:12:39.726Z,535
2016-07-12T13:13:39.723Z,515
2016-07-12T13:14:39.727Z,520
2016-07-12T13:15:41.127Z,485
2016-07-12T13:16:40.411Z,515
2016-07-12T13:17:41.179Z,645
2016-07-12T13:18:38.988Z,820
2016-07-12T13:19:39.702Z,1505
2016-07-12T13:20:40.402Z,2470
2016-07-12T13:21:40.396Z,735
2016-07-12T13:22:40.409Z,885
2016-07-12T13:23:39.689Z,2165
2016-07-12T13:24:41.088Z,2095
2016-07-12T13:25:41.097Z,495
2016-07-12T13:26:40.378Z,460
2016-07-12T13:27:38.955Z,1175
2016-07-12T13:28:40.370Z,2030
2016-07-12T13:29:40.376Z,2005
2016-07-12T13:30:39.661Z,1880
2016-07-12T13:31:40.372Z,1980
2016-07-12T13:32:39.654Z,1115
2016-07-12T13:33:40.391Z,1170
2016-07-12T13:34:40.351Z,2015
2016-07-12T13:35:39.671Z,1470
2016-07-12T13:36:40.351Z,640
2016-07-12T13:37:40.364Z,1995
2016-07-12T13:38:40.357Z,1095
2016-07-12T13:39:41.066Z,500
2016-07-12T13:40:41.069Z,630
2016-07-12T13:41:40.368Z,650
2016-07-12T13:42:39.646Z,795
2016-07-12T13:43:41.320Z,1355
2016-07-12T13:44:41.059Z,2005
2016-07-12T13:45:41.059Z,2055
2016-07-12T13:46:38.944Z,1950
2016-07-12T13:47:40.406Z,1985
2016-07-12T13:48:39.651Z,1955
2016-07-12T13:49:39.643Z,780
2016-07-12T13:50:39.640Z,485
2016-07-12T13:51:40.355Z,370
2016-07-12T13:52:40.342Z,345
2016-07-12T13:53:40.356Z,340
2016-07-12T13:54:39.639Z,345
2016-07-12T13:55:39.696Z,370
2016-07-12T13:56:41.050Z,380
2016-07-12T13:57:39.629Z,510
2016-07-12T13:58:40.340Z,530
2016-07-12T13:59:39.647Z,505
2016-07-12T14:00:40.344Z,370
2016-07-12T14:01:38.917Z,385
2016-07-12T14:02:38.917Z,460